createdAt,value
2019-04-05T00:00:33.854Z,46.679688
2019-04-05T00:01:33.981Z,46.679688
2019-04-05T00:02:34.139Z,46.679688
2019-04-05T00:03:34.268Z,46.697998
2019-04-05T00:04:34.452Z,46.697998
2019-04-05T00:05:34.616Z,46.697998
2019-04-05T00:06:34.761Z,46.679688
2019-04-05T00:07:34.885Z,46.575928
2019-04-05T00:08:35.028Z,46.679688
2019-04-05T00:09:35.176Z,46.679688
2019-04-05T00:10:35.313Z,46.575928
2019-04-05T00:11:35.479Z,46.575928
2019-04-05T00:12:35.641Z,46.697998
2019-04-05T00:13:35.785Z,46.697998
2019-04-05T00:14:35.954Z,46.697998
2019-04-05T00:15:38.064Z,46.697998
2019-04-05T00:16:36.302Z,46.697998
2019-04-05T00:17:36.427Z,46.697998
2019-04-05T00:18:36.574Z,46.801758
2019-04-05T00:19:36.724Z,46.697998
2019-04-05T00:20:36.870Z,46.697998
2019-04-05T00:21:38.011Z,46.697998
2019-04-05T00:22:37.025Z,46.697998
2019-04-05T00:23:37.164Z,46.697998
2019-04-05T00:24:38.307Z,46.697998
2019-04-05T00:25:37.380Z,46.697998
2019-04-05T00:26:37.568Z,46.697998
2019-04-05T00:27:37.576Z,46.697998
2019-04-05T00:28:37.701Z,46.697998
2019-04-05T00:29:37.843Z,46.697998
2019-04-05T00:30:37.979Z,46.697998
2019-04-05T00:31:38.147Z,46.697998
2019-04-05T00:32:38.290Z,46.697998
2019-04-05T00:33:38.450Z,46.697998
2019-04-05T00:34:38.612Z,46.697998
2019-04-05T00:35:38.759Z,46.697998
2019-04-05T00:36:38.908Z,46.697998
2019-04-05T00:37:39.050Z,46.697998
2019-04-05T00:38:39.191Z,46.697998
2019-04-05T00:39:39.349Z,46.697998
2019-04-05T00:40:39.482Z,46.697998
2019-04-05T00:41:39.632Z,46.697998
2019-04-05T00:42:39.818Z,46.697998
2019-04-05T00:43:39.966Z,46.697998
2019-04-05T00:44:40.115Z,46.697998
2019-04-05T00:45:40.263Z,46.801758
2019-04-05T00:46:40.420Z,46.801758
2019-04-05T00:47:40.567Z,46.697998
2019-04-05T00:48:40.734Z,46.697998
2019-04-05T00:49:40.889Z,46.697998
2019-04-05T00:50:41.034Z,46.697998
2019-04-05T00:51:41.191Z,46.697998
2019-04-05T00:52:41.374Z,46.697998
2019-04-05T00:53:41.536Z,46.801758
2019-04-05T00:54:41.689Z,46.697998
2019-04-05T00:55:41.827Z,46.697998
2019-04-05T00:56:41.975Z,46.697998
2019-04-05T00:57:42.161Z,46.697998
2019-04-05T00:58:42.270Z,46.697998
2019-04-05T00:59:42.402Z,46.697998
2019-04-05T01:00:42.548Z,46.697998
2019-04-05T01:01:42.688Z,46.697998
2019-04-05T01:02:42.862Z,46.697998
2019-04-05T01:03:42.997Z,46.697998
2019-04-05T01:04:43.133Z,46.697998
2019-04-05T01:05:44.281Z,46.697998
2019-04-05T01:06:43.326Z,46.697998
2019-04-05T01:07:43.478Z,46.697998
2019-04-05T01:08:43.613Z,46.697998
2019-04-05T01:09:43.755Z,46.697998
2019-04-05T01:10:43.895Z,46.697998
2019-04-05T01:11:44.052Z,46.600342
2019-04-05T01:12:44.211Z,46.600342
2019-04-05T01:13:44.376Z,46.697998
2019-04-05T01:14:44.518Z,46.600342
2019-04-05T01:15:44.665Z,46.697998
2019-04-05T01:16:44.826Z,46.600342
2019-04-05T01:17:44.960Z,46.600342
2019-04-05T01:18:45.124Z,46.600342
2019-04-05T01:19:45.304Z,46.575928
2019-04-05T01:20:45.432Z,46.600342
2019-04-05T01:21:45.566Z,46.600342
2019-04-05T01:22:45.721Z,46.600342
2019-04-05T01:23:45.863Z,46.600342
2019-04-05T01:24:46.032Z,46.600342
2019-04-05T01:25:46.163Z,46.600342
2019-04-05T01:26:46.305Z,46.600342
2019-04-05T01:27:48.415Z,46.600342
2019-04-05T01:28:46.617Z,46.600342
2019-04-05T01:29:46.781Z,46.575928
2019-04-05T01:30:46.946Z,46.575928
2019-04-05T01:31:47.115Z,46.575928
2019-04-05T01:32:47.253Z,46.575928
2019-04-05T01:33:47.438Z,46.575928
2019-04-05T01:34:47.590Z,46.600342
2019-04-05T01:35:48.743Z,46.600342
2019-04-05T01:36:47.790Z,46.600342
2019-04-05T01:37:47.937Z,46.600342
2019-04-05T01:38:48.060Z,46.600342
2019-04-05T01:39:48.192Z,46.575928
2019-04-05T01:40:48.363Z,46.600342
2019-04-05T01:41:48.499Z,46.600342
2019-04-05T01:42:48.617Z,46.600342
2019-04-05T01:43:48.770Z,46.600342
2019-04-05T01:44:50.589Z,46.600342
2019-04-05T01:45:53.787Z,46.600342
2019-04-05T01:46:49.171Z,46.600342
2019-04-05T01:47:49.312Z,46.600342
2019-04-05T01:48:49.456Z,46.600342
2019-04-05T01:49:49.612Z,46.600342
2019-04-05T01:50:49.751Z,46.600342
2019-04-05T01:51:49.883Z,46.600342
2019-04-05T01:52:50.042Z,46.600342
2019-04-05T01:53:50.194Z,46.600342
2019-04-05T01:54:50.349Z,46.600342
2019-04-05T01:55:50.500Z,46.600342
2019-04-05T01:56:50.655Z,46.600342
2019-04-05T01:57:50.810Z,46.600342
2019-04-05T01:58:50.967Z,46.600342
2019-04-05T01:59:51.134Z,46.600342
2019-04-05T02:00:51.273Z,46.600342
2019-04-05T02:01:51.413Z,46.600342
2019-04-05T02:02:51.555Z,46.600342
2019-04-05T02:03:51.697Z,46.600342
2019-04-05T02:04:52.850Z,46.600342
2019-04-05T02:05:52.001Z,46.600342
2019-04-05T02:06:52.158Z,46.600342
2019-04-05T02:07:52.310Z,46.600342
2019-04-05T02:08:52.442Z,46.600342
2019-04-05T02:09:52.613Z,46.600342
2019-04-05T02:10:52.767Z,46.600342
2019-04-05T02:11:52.920Z,46.600342
2019-04-05T02:12:53.061Z,46.697998
2019-04-05T02:13:53.213Z,46.697998
2019-04-05T02:14:53.361Z,46.697998
2019-04-05T02:16:05.265Z,46.697998
2019-04-05T02:16:54.591Z,46.697998
2019-04-05T02:17:53.637Z,46.697998
2019-04-05T02:18:53.784Z,46.697998
2019-04-05T02:19:53.939Z,46.697998
2019-04-05T02:20:54.090Z,46.697998
2019-04-05T02:21:54.255Z,46.697998
2019-04-05T02:22:54.397Z,46.697998
2019-04-05T02:23:54.550Z,46.697998
2019-04-05T02:24:54.697Z,46.697998
2019-04-05T02:25:54.891Z,46.697998
2019-04-05T02:26:55.058Z,46.697998
2019-04-05T02:27:55.258Z,46.697998
2019-04-05T02:28:55.351Z,46.697998
2019-04-05T02:29:55.496Z,46.697998
2019-04-05T02:30:55.622Z,46.697998
2019-04-05T02:31:55.772Z,46.697998
2019-04-05T02:32:55.905Z,46.697998
2019-04-05T02:33:56.081Z,46.697998
2019-04-05T02:34:56.222Z,46.697998
2019-04-05T02:35:56.356Z,46.697998
2019-04-05T02:36:56.530Z,46.697998
2019-04-05T02:37:56.666Z,46.697998
2019-04-05T02:38:56.818Z,46.697998
2019-04-05T02:39:56.976Z,46.697998
2019-04-05T02:40:58.719Z,46.697998
2019-04-05T02:41:57.271Z,46.697998
2019-04-05T02:42:57.430Z,46.697998
2019-04-05T02:43:57.587Z,46.697998
2019-04-05T02:44:57.711Z,46.697998
2019-04-05T02:45:58.849Z,46.697998
2019-04-05T02:46:58.925Z,46.697998
2019-04-05T02:47:57.951Z,46.697998
2019-04-05T02:48:58.126Z,46.697998
2019-04-05T02:49:58.241Z,46.697998
2019-04-05T02:50:58.379Z,46.697998
2019-04-05T02:51:58.522Z,46.697998
2019-04-05T02:52:58.684Z,46.697998
2019-04-05T02:53:58.825Z,46.697998
2019-04-05T02:54:58.990Z,46.697998
2019-04-05T02:56:02.683Z,46.697998
2019-04-05T02:56:59.334Z,46.697998
2019-04-05T02:57:59.432Z,46.697998
2019-04-05T02:58:59.588Z,46.697998
2019-04-05T02:59:59.733Z,46.697998
2019-04-05T03:00:59.889Z,46.697998
2019-04-05T03:02:00.017Z,46.697998
2019-04-05T03:03:00.196Z,46.697998
2019-04-05T03:04:00.315Z,46.697998
2019-04-05T03:05:00.444Z,46.697998
2019-04-05T03:06:00.573Z,46.697998
2019-04-05T03:07:00.700Z,46.697998
2019-04-05T03:08:00.840Z,46.697998
2019-04-05T03:09:01.007Z,46.697998
2019-04-05T03:10:01.142Z,46.697998
2019-04-05T03:11:01.299Z,46.697998
2019-04-05T03:12:01.452Z,46.697998
2019-04-05T03:13:01.584Z,46.697998
2019-04-05T03:14:01.736Z,46.697998
2019-04-05T03:15:01.864Z,46.697998
2019-04-05T03:16:02.022Z,46.697998
2019-04-05T03:17:02.143Z,46.697998
2019-04-05T03:18:02.282Z,46.801758
2019-04-05T03:19:02.442Z,46.801758
2019-04-05T03:20:02.587Z,46.801758
2019-04-05T03:21:02.711Z,46.697998
2019-04-05T03:22:03.849Z,46.801758
2019-04-05T03:23:02.927Z,46.801758
2019-04-05T03:24:03.028Z,46.801758
2019-04-05T03:25:03.183Z,46.801758
2019-04-05T03:26:03.335Z,46.801758
2019-04-05T03:27:03.477Z,46.801758
2019-04-05T03:28:03.673Z,46.801758
2019-04-05T03:29:03.825Z,46.801758
2019-04-05T03:30:03.983Z,46.801758
2019-04-05T03:31:04.113Z,46.801758
2019-04-05T03:32:04.366Z,46.801758
2019-04-05T03:33:04.442Z,46.905518
2019-04-05T03:34:04.602Z,46.905518
2019-04-05T03:35:04.843Z,46.905518
2019-04-05T03:36:04.843Z,46.905518
2019-04-05T03:37:04.999Z,46.905518
2019-04-05T03:38:05.152Z,46.905518
2019-04-05T03:39:05.281Z,46.905518
2019-04-05T03:40:05.463Z,46.905518
2019-04-05T03:41:05.598Z,46.905518
2019-04-05T03:42:05.755Z,46.801758
2019-04-05T03:43:05.883Z,46.905518
2019-04-05T03:44:06.016Z,46.801758
2019-04-05T03:45:06.144Z,46.905518
2019-04-05T03:46:06.311Z,46.801758
2019-04-05T03:47:06.445Z,46.905518
2019-04-05T03:48:06.579Z,46.801758
2019-04-05T03:49:06.718Z,46.801758
2019-04-05T03:50:06.854Z,46.801758
2019-04-05T03:51:06.994Z,46.905518
2019-04-05T03:52:07.125Z,46.801758
2019-04-05T03:53:07.238Z,46.801758
2019-04-05T03:54:07.386Z,46.905518
2019-04-05T03:55:07.527Z,46.905518
2019-04-05T03:56:07.657Z,46.905518
2019-04-05T03:57:07.817Z,46.905518
2019-04-05T03:58:07.958Z,46.801758
2019-04-05T03:59:08.144Z,46.905518
2019-04-05T04:00:08.274Z,46.801758
2019-04-05T04:01:08.416Z,46.801758
2019-04-05T04:02:08.562Z,46.801758
2019-04-05T04:03:08.789Z,46.905518
2019-04-05T04:04:08.864Z,46.905518
2019-04-05T04:05:08.997Z,46.905518
2019-04-05T04:06:09.137Z,46.905518
2019-04-05T04:07:09.298Z,46.905518
2019-04-05T04:08:09.434Z,46.905518
2019-04-05T04:09:10.527Z,46.905518
2019-04-05T04:10:10.580Z,46.801758
2019-04-05T04:11:09.630Z,46.905518
2019-04-05T04:12:09.801Z,46.905518
2019-04-05T04:13:09.941Z,46.801758
2019-04-05T04:14:10.077Z,46.905518
2019-04-05T04:15:13.420Z,46.905518
2019-04-05T04:16:10.353Z,46.905518
2019-04-05T04:17:12.420Z,46.905518
2019-04-05T04:18:10.641Z,46.905518
2019-04-05T04:19:10.769Z,46.905518
2019-04-05T04:20:10.906Z,46.905518
2019-04-05T04:21:11.042Z,46.905518
2019-04-05T04:22:11.225Z,46.905518
2019-04-05T04:23:11.435Z,46.905518
2019-04-05T04:24:11.497Z,46.905518
2019-04-05T04:25:11.642Z,46.905518
2019-04-05T04:26:11.782Z,46.905518
2019-04-05T04:27:11.955Z,46.905518
2019-04-05T04:28:12.077Z,46.905518
2019-04-05T04:29:12.248Z,46.905518
2019-04-05T04:30:12.387Z,46.905518
2019-04-05T04:31:12.526Z,46.905518
2019-04-05T04:32:12.692Z,46.905518
2019-04-05T04:33:12.842Z,46.905518
2019-04-05T04:34:12.982Z,46.905518
2019-04-05T04:35:13.110Z,46.905518
2019-04-05T04:36:13.374Z,46.905518
2019-04-05T04:37:13.390Z,46.905518
2019-04-05T04:38:13.587Z,46.905518
2019-04-05T04:39:13.751Z,46.905518
2019-04-05T04:40:13.886Z,47.003174
2019-04-05T04:41:14.045Z,47.003174
2019-04-05T04:42:14.180Z,47.003174
2019-04-05T04:43:14.316Z,47.003174
2019-04-05T04:44:14.479Z,46.905518
2019-04-05T04:45:14.605Z,46.905518
2019-04-05T04:46:14.781Z,46.905518
2019-04-05T04:47:25.317Z,46.905518
2019-04-05T04:48:16.006Z,46.905518
2019-04-05T04:49:15.056Z,47.003174
2019-04-05T04:50:15.198Z,47.003174
2019-04-05T04:51:15.343Z,47.003174
2019-04-05T04:52:15.572Z,47.003174
2019-04-05T04:53:15.694Z,47.003174
2019-04-05T04:54:15.839Z,47.003174
2019-04-05T04:55:15.988Z,47.003174
2019-04-05T04:56:16.137Z,47.003174
2019-04-05T04:57:18.736Z,47.003174
2019-04-05T04:58:16.876Z,47.003174
2019-04-05T04:59:17.334Z,47.003174
2019-04-05T05:00:16.602Z,47.003174
2019-04-05T05:01:16.586Z,47.003174
2019-04-05T05:02:16.720Z,47.003174
2019-04-05T05:03:16.864Z,47.003174
2019-04-05T05:04:17.015Z,47.003174
2019-04-05T05:05:17.152Z,47.003174
2019-04-05T05:06:17.312Z,47.003174
2019-04-05T05:07:17.603Z,47.003174
2019-04-05T05:08:17.586Z,47.003174
2019-04-05T05:09:17.740Z,47.003174
2019-04-05T05:10:17.908Z,47.003174
2019-04-05T05:11:18.039Z,47.003174
2019-04-05T05:12:18.179Z,47.003174
2019-04-05T05:13:18.344Z,47.003174
2019-04-05T05:14:18.497Z,47.003174
2019-04-05T05:15:18.649Z,47.003174
2019-04-05T05:16:18.776Z,47.003174
2019-04-05T05:17:18.900Z,47.003174
2019-04-05T05:18:20.002Z,47.003174
2019-04-05T05:19:19.073Z,47.003174
2019-04-05T05:20:19.217Z,47.003174
2019-04-05T05:21:19.238Z,47.003174
2019-04-05T05:22:19.429Z,47.003174
2019-04-05T05:23:19.570Z,47.003174
2019-04-05T05:24:19.745Z,47.003174
2019-04-05T05:25:19.908Z,47.003174
2019-04-05T05:26:19.895Z,47.003174
2019-04-05T05:27:20.042Z,47.003174
2019-04-05T05:28:20.180Z,47.003174
2019-04-05T05:29:21.312Z,47.003174
2019-04-05T05:30:20.362Z,47.003174
2019-04-05T05:31:20.499Z,47.003174
2019-04-05T05:32:20.667Z,47.003174
2019-04-05T05:33:20.808Z,47.003174
2019-04-05T05:34:20.952Z,47.003174
2019-04-05T05:35:21.140Z,47.003174
2019-04-05T05:36:21.197Z,47.003174
2019-04-05T05:37:21.184Z,47.003174
2019-04-05T05:38:22.323Z,47.003174
2019-04-05T05:39:21.400Z,47.003174
2019-04-05T05:40:33.968Z,47.003174
2019-04-05T05:41:22.650Z,47.003174
2019-04-05T05:42:21.731Z,47.003174
2019-04-05T05:43:23.792Z,46.905518
2019-04-05T05:44:22.046Z,46.905518
2019-04-05T05:45:22.183Z,46.905518
2019-04-05T05:46:22.345Z,47.003174
2019-04-05T05:47:22.493Z,47.003174
2019-04-05T05:48:22.625Z,47.003174
2019-04-05T05:49:22.858Z,47.003174
2019-04-05T05:50:22.826Z,47.003174
2019-04-05T05:51:22.970Z,47.003174
2019-04-05T05:52:23.130Z,47.003174
2019-04-05T05:53:23.297Z,47.003174
2019-04-05T05:54:23.462Z,47.003174
2019-04-05T05:55:23.533Z,47.003174
2019-04-05T05:56:23.552Z,47.003174
2019-04-05T05:57:23.592Z,47.003174
2019-04-05T05:58:25.742Z,47.003174
2019-04-05T05:59:23.904Z,47.003174
2019-04-05T06:00:24.243Z,47.003174
2019-04-05T06:01:24.108Z,47.003174
2019-04-05T06:02:24.361Z,47.003174
2019-04-05T06:03:25.959Z,47.003174
2019-04-05T06:04:25.557Z,47.003174
2019-04-05T06:05:24.754Z,47.003174
2019-04-05T06:06:25.064Z,47.003174
2019-04-05T06:07:25.101Z,47.003174
2019-04-05T06:08:25.378Z,47.003174
2019-04-05T06:09:25.223Z,47.003174
2019-04-05T06:10:25.462Z,46.905518
2019-04-05T06:11:25.477Z,46.905518
2019-04-05T06:12:25.456Z,46.905518
2019-04-05T06:13:25.480Z,46.905518
2019-04-05T06:14:25.652Z,47.003174
2019-04-05T06:15:25.917Z,47.003174
2019-04-05T06:16:26.952Z,47.003174
2019-04-05T06:17:27.013Z,47.003174
2019-04-05T06:18:26.084Z,47.003174
2019-04-05T06:19:26.251Z,47.003174
2019-04-05T06:20:26.283Z,47.003174
2019-04-05T06:21:26.264Z,46.905518
2019-04-05T06:22:26.458Z,46.905518
2019-04-05T06:23:33.318Z,46.905518
2019-04-05T06:24:26.749Z,46.905518
2019-04-05T06:25:26.889Z,46.905518
2019-04-05T06:26:26.891Z,46.905518
2019-04-05T06:27:26.883Z,46.905518
2019-04-05T06:28:27.094Z,46.905518
2019-04-05T06:29:27.103Z,46.905518
2019-04-05T06:30:28.689Z,46.905518
2019-04-05T06:31:27.315Z,46.905518
2019-04-05T06:32:27.397Z,46.905518
2019-04-05T06:33:31.619Z,46.905518
2019-04-05T06:34:27.563Z,46.905518
2019-04-05T06:35:28.841Z,46.881104
2019-04-05T06:36:27.921Z,46.777344
2019-04-05T06:37:27.911Z,46.777344
2019-04-05T06:38:28.083Z,46.777344
2019-04-05T06:39:28.249Z,46.801758
2019-04-05T06:40:39.957Z,46.777344
2019-04-05T06:41:29.993Z,46.777344
2019-04-05T06:42:28.599Z,46.777344
2019-04-05T06:43:28.590Z,46.777344
2019-04-05T06:44:28.598Z,46.777344
2019-04-05T06:45:28.741Z,46.777344
2019-04-05T06:46:28.959Z,46.777344
2019-04-05T06:47:28.986Z,46.777344
2019-04-05T06:48:29.605Z,46.777344
2019-04-05T06:49:29.199Z,46.777344
2019-04-05T06:50:29.210Z,46.777344
2019-04-05T06:51:29.372Z,46.679688
2019-04-05T06:52:29.342Z,46.777344
2019-04-05T06:53:29.600Z,46.777344
2019-04-05T06:54:30.633Z,46.777344
2019-04-05T06:55:37.538Z,46.777344
2019-04-05T06:56:32.057Z,46.679688
2019-04-05T06:57:39.811Z,46.679688
2019-04-05T06:58:36.631Z,46.679688
2019-04-05T06:59:31.808Z,46.679688
2019-04-05T07:00:30.376Z,46.679688
2019-04-05T07:01:32.602Z,46.679688
2019-04-05T07:02:30.425Z,46.679688
2019-04-05T07:03:30.436Z,46.679688
2019-04-05T07:04:31.093Z,46.679688
2019-04-05T07:05:31.249Z,46.679688
2019-04-05T07:06:31.564Z,46.679688
2019-04-05T07:07:32.015Z,46.679688
2019-04-05T07:08:31.141Z,46.679688
2019-04-05T07:09:34.992Z,46.575928
2019-04-05T07:10:34.952Z,46.679688
2019-04-05T07:11:31.138Z,46.575928
2019-04-05T07:12:31.826Z,46.575928
2019-04-05T07:13:31.577Z,46.575928
2019-04-05T07:14:32.688Z,46.575928
2019-04-05T07:15:33.986Z,46.575928
2019-04-05T07:16:31.616Z,46.575928
2019-04-05T07:17:31.653Z,46.575928
2019-04-05T07:18:35.768Z,46.575928
2019-04-05T07:19:31.821Z,46.575928
2019-04-05T07:20:33.024Z,46.575928
2019-04-05T07:21:32.190Z,46.575928
2019-04-05T07:22:38.789Z,46.575928
2019-04-05T07:23:33.298Z,46.575928
2019-04-05T07:24:33.342Z,46.575928
2019-04-05T07:25:34.094Z,46.575928
2019-04-05T07:26:32.603Z,46.575928
2019-04-05T07:27:32.670Z,46.478271
2019-04-05T07:28:32.697Z,46.478271
2019-04-05T07:29:32.869Z,46.478271
2019-04-05T07:30:32.931Z,46.478271
2019-04-05T07:31:33.141Z,46.453857
2019-04-05T07:32:33.213Z,46.478271
2019-04-05T07:33:33.260Z,46.478271
2019-04-05T07:34:33.286Z,46.478271
2019-04-05T07:35:34.117Z,46.478271
2019-04-05T07:36:33.446Z,46.453857
2019-04-05T07:37:33.622Z,46.453857
2019-04-05T07:38:33.609Z,46.478271
2019-04-05T07:39:33.638Z,46.453857
2019-04-05T07:40:33.647Z,46.453857
2019-04-05T07:41:33.662Z,46.453857
2019-04-05T07:42:33.708Z,46.356201
2019-04-05T07:43:33.899Z,46.356201
2019-04-05T07:44:34.066Z,46.356201
2019-04-05T07:45:34.059Z,46.356201
2019-04-05T07:46:35.231Z,46.453857
2019-04-05T07:47:35.320Z,46.356201
2019-04-05T07:48:44.016Z,46.356201
2019-04-05T07:49:34.543Z,46.356201
2019-04-05T07:50:34.692Z,46.356201
2019-04-05T07:51:34.746Z,46.356201
2019-04-05T07:52:34.733Z,46.252441
2019-04-05T07:53:34.771Z,46.252441
2019-04-05T07:54:34.823Z,46.252441
2019-04-05T07:55:34.899Z,46.252441
2019-04-05T07:56:34.914Z,46.252441
2019-04-05T07:57:35.938Z,46.252441
2019-04-05T07:58:35.028Z,46.252441
2019-04-05T07:59:35.204Z,46.252441
2019-04-05T08:00:35.267Z,46.252441
2019-04-05T08:01:35.281Z,46.252441
2019-04-05T08:02:35.331Z,46.252441
2019-04-05T08:03:35.325Z,46.252441
2019-04-05T08:04:35.433Z,46.252441
2019-04-05T08:05:35.430Z,46.252441
2019-04-05T08:06:35.473Z,46.252441
2019-04-05T08:07:36.625Z,46.252441
2019-04-05T08:08:35.726Z,46.252441
2019-04-05T08:09:35.729Z,46.252441
2019-04-05T08:10:35.814Z,46.252441
2019-04-05T08:11:36.239Z,46.252441
2019-04-05T08:12:35.959Z,46.252441
2019-04-05T08:13:36.147Z,46.252441
2019-04-05T08:14:36.334Z,46.252441
2019-04-05T08:15:36.346Z,46.252441
2019-04-05T08:16:36.403Z,46.356201
2019-04-05T08:17:36.411Z,46.356201
2019-04-05T08:18:36.579Z,46.356201
2019-04-05T08:19:37.742Z,46.356201
2019-04-05T08:20:36.805Z,46.356201
2019-04-05T08:21:36.826Z,46.356201
2019-04-05T08:22:36.854Z,46.356201
2019-04-05T08:23:36.862Z,46.356201
2019-04-05T08:24:36.870Z,46.356201
2019-04-05T08:25:36.902Z,46.356201
2019-04-05T08:26:36.914Z,46.356201
2019-04-05T08:27:37.081Z,46.356201
2019-04-05T08:28:37.073Z,46.356201
2019-04-05T08:29:37.268Z,46.356201
2019-04-05T08:30:37.265Z,46.453857
2019-04-05T08:31:37.314Z,46.453857
2019-04-05T08:32:37.494Z,46.557617
2019-04-05T08:33:39.264Z,46.453857
2019-04-05T08:34:37.611Z,46.453857
2019-04-05T08:35:37.782Z,46.453857
2019-04-05T08:36:37.806Z,46.453857
2019-04-05T08:37:38.407Z,46.557617
2019-04-05T08:38:39.759Z,46.759033
2019-04-05T08:39:38.075Z,46.856689
2019-04-05T08:40:38.238Z,46.655273
2019-04-05T08:41:38.353Z,46.655273
2019-04-05T08:42:38.396Z,46.759033
2019-04-05T08:43:38.594Z,46.759033
2019-04-05T08:44:38.721Z,46.655273
2019-04-05T08:45:38.755Z,46.655273
2019-04-05T08:46:38.783Z,46.655273
2019-04-05T08:47:39.032Z,46.655273
2019-04-05T08:48:39.241Z,46.655273
2019-04-05T08:49:40.419Z,46.557617
2019-04-05T08:50:39.141Z,46.557617
2019-04-05T08:51:39.309Z,46.557617
2019-04-05T08:52:39.345Z,46.557617
2019-04-05T08:53:39.445Z,46.557617
2019-04-05T08:54:39.464Z,46.557617
2019-04-05T08:55:39.546Z,46.557617
2019-04-05T08:56:39.591Z,46.557617
2019-04-05T08:57:39.604Z,46.557617
2019-04-05T08:58:39.636Z,46.557617
2019-04-05T08:59:39.668Z,46.557617
2019-04-05T09:00:39.798Z,46.557617
2019-04-05T09:01:39.938Z,46.557617
2019-04-05T09:02:40.021Z,46.453857
2019-04-05T09:03:40.094Z,46.453857
2019-04-05T09:04:40.210Z,46.453857
2019-04-05T09:05:40.134Z,46.453857
2019-04-05T09:06:40.430Z,46.453857
2019-04-05T09:07:40.225Z,46.453857
2019-04-05T09:08:40.262Z,46.557617
2019-04-05T09:09:41.239Z,46.557617
2019-04-05T09:10:40.989Z,46.453857
2019-04-05T09:11:41.445Z,46.557617
2019-04-05T09:12:40.547Z,46.453857
2019-04-05T09:13:40.567Z,46.453857
2019-04-05T09:14:40.771Z,46.453857
2019-04-05T09:15:40.764Z,46.453857
2019-04-05T09:16:40.762Z,46.453857
2019-04-05T09:17:40.753Z,46.453857
2019-04-05T09:18:40.939Z,46.453857
2019-04-05T09:19:41.134Z,46.453857
2019-04-05T09:20:42.128Z,46.429443
2019-04-05T09:21:41.199Z,46.331787
2019-04-05T09:22:41.225Z,46.331787
2019-04-05T09:23:41.240Z,46.331787
2019-04-05T09:24:41.430Z,46.429443
2019-04-05T09:25:41.463Z,46.429443
2019-04-05T09:26:41.914Z,46.331787
2019-04-05T09:27:42.552Z,46.331787
2019-04-05T09:28:41.664Z,46.331787
2019-04-05T09:29:41.872Z,46.331787
2019-04-05T09:30:41.967Z,46.331787
2019-04-05T09:31:42.849Z,46.331787
2019-04-05T09:32:42.072Z,46.228027
2019-04-05T09:33:42.217Z,46.228027
2019-04-05T09:34:42.266Z,46.228027
2019-04-05T09:35:42.308Z,46.228027
2019-04-05T09:36:42.365Z,46.228027
2019-04-05T09:37:42.394Z,46.228027
2019-04-05T09:38:42.650Z,46.228027
2019-04-05T09:39:42.606Z,46.130371
2019-04-05T09:40:42.889Z,46.026611
2019-04-05T09:41:42.772Z,46.026611
2019-04-05T09:42:42.913Z,46.026611
2019-04-05T09:43:42.903Z,46.026611
2019-04-05T09:44:44.268Z,46.026611
2019-04-05T09:45:43.409Z,46.026611
2019-04-05T09:46:47.094Z,45.904541
2019-04-05T09:47:44.307Z,45.904541
2019-04-05T09:48:43.222Z,45.904541
2019-04-05T09:49:43.389Z,45.904541
2019-04-05T09:50:43.493Z,45.904541
2019-04-05T09:51:43.536Z,45.806885
2019-04-05T09:52:43.638Z,45.806885
2019-04-05T09:53:43.712Z,45.806885
2019-04-05T09:54:43.721Z,45.806885
2019-04-05T09:55:43.938Z,45.703125
2019-04-05T09:56:51.701Z,45.703125
2019-04-05T09:57:43.823Z,45.703125
2019-04-05T09:58:44.009Z,45.703125
2019-04-05T09:59:43.955Z,45.605469
2019-04-05T10:00:43.945Z,45.605469
2019-04-05T10:01:43.993Z,45.605469
2019-04-05T10:02:44.001Z,45.581055
2019-04-05T10:03:44.031Z,45.483398
2019-04-05T10:04:44.069Z,45.483398
2019-04-05T10:05:44.220Z,45.483398
2019-04-05T10:06:44.246Z,45.483398
2019-04-05T10:07:54.492Z,45.379639
2019-04-05T10:08:44.356Z,45.483398
2019-04-05T10:09:44.426Z,45.782471
2019-04-05T10:10:44.498Z,45.483398
2019-04-05T10:11:45.249Z,45.483398
2019-04-05T10:12:44.777Z,45.581055
2019-04-05T10:13:46.232Z,45.581055
2019-04-05T10:14:45.880Z,45.581055
2019-04-05T10:15:45.239Z,45.581055
2019-04-05T10:16:44.981Z,45.581055
2019-04-05T10:17:44.996Z,45.581055
2019-04-05T10:18:45.111Z,45.483398
2019-04-05T10:19:49.961Z,45.483398
2019-04-05T10:20:45.211Z,45.483398
2019-04-05T10:21:45.113Z,45.379639
2019-04-05T10:22:45.120Z,45.379639
2019-04-05T10:23:46.243Z,45.483398
2019-04-05T10:24:45.177Z,45.483398
2019-04-05T10:25:45.276Z,45.483398
2019-04-05T10:26:45.462Z,45.483398
2019-04-05T10:27:45.490Z,45.483398
2019-04-05T10:28:46.491Z,45.483398
2019-04-05T10:29:49.340Z,45.483398
2019-04-05T10:30:45.727Z,45.483398
2019-04-05T10:31:45.995Z,45.483398
2019-04-05T10:32:46.333Z,45.483398
2019-04-05T10:33:45.921Z,45.379639
2019-04-05T10:34:45.974Z,45.379639
2019-04-05T10:35:45.977Z,45.379639
2019-04-05T10:36:45.982Z,45.379639
2019-04-05T10:37:46.595Z,45.379639
2019-04-05T10:38:46.106Z,45.379639
2019-04-05T10:39:46.102Z,45.379639
2019-04-05T10:40:46.100Z,45.379639
2019-04-05T10:41:46.104Z,45.379639
2019-04-05T10:42:47.123Z,45.581055
2019-04-05T10:43:46.227Z,45.88623
2019-04-05T10:44:47.308Z,45.782471
2019-04-05T10:45:46.463Z,45.76416
2019-04-05T10:46:46.425Z,45.965576
2019-04-05T10:47:46.436Z,45.965576
2019-04-05T10:48:46.630Z,45.965576
2019-04-05T10:49:46.672Z,46.063232
2019-04-05T10:50:47.813Z,45.965576
2019-04-05T10:51:46.880Z,46.166992
2019-04-05T10:52:47.034Z,46.166992
2019-04-05T10:53:47.029Z,46.166992
2019-04-05T10:54:47.004Z,46.466064
2019-04-05T10:55:46.998Z,46.368408
2019-04-05T10:56:47.005Z,46.466064
2019-04-05T10:57:47.053Z,46.466064
2019-04-05T10:58:47.059Z,46.368408
2019-04-05T10:59:47.235Z,46.264648
2019-04-05T11:00:47.232Z,46.368408
2019-04-05T11:01:47.397Z,46.368408
2019-04-05T11:02:47.421Z,46.264648
2019-04-05T11:03:47.476Z,46.166992
2019-04-05T11:04:47.441Z,46.166992
2019-04-05T11:05:49.168Z,46.166992
2019-04-05T11:06:47.540Z,46.166992
2019-04-05T11:07:47.661Z,46.063232
2019-04-05T11:08:47.812Z,46.063232
2019-04-05T11:09:47.813Z,46.063232
2019-04-05T11:10:47.825Z,45.965576
2019-04-05T11:11:47.814Z,45.965576
2019-04-05T11:12:49.844Z,45.965576
2019-04-05T11:13:47.857Z,45.965576
2019-04-05T11:14:47.858Z,45.861816
2019-04-05T11:15:48.044Z,45.861816
2019-04-05T11:16:57.737Z,45.861816
2019-04-05T11:17:48.180Z,45.861816
2019-04-05T11:18:48.198Z,45.861816
2019-04-05T11:19:49.232Z,45.861816
2019-04-05T11:20:49.631Z,45.861816
2019-04-05T11:21:52.035Z,45.76416
2019-04-05T11:22:49.952Z,45.76416
2019-04-05T11:23:48.366Z,45.76416
2019-04-05T11:24:48.522Z,45.76416
2019-04-05T11:25:48.580Z,45.76416